Latest METARs, TAFs and NOTAMs for ETSI


---------------------------------------------------------------------------
	(OBSERVATIONS)
ETSI 241320Z AUTO 27012G23KT 6000 // ////// 27/13 Q1016 ///=
ETSI 241220Z AUTO 27017KT 6000 // ////// 27/13 Q1017 ///=
ETSI 241120Z AUTO 27015KT 7000 // ////// 25/12 Q1017 ///=
---------------------------------------------------------------------------
	(FC)
TAF ETSI 231015Z 2311/2320 28015G25KT 9999 NSW SCT040 SCT120 BKN250
     CANCEL 1100=
---------------------------------------------------------------------------
	(TERMINAL AREA FORECAST)
ETSI 231015Z 2311/2320 28015G25KT 9999 NSW SCT040 SCT120
    BKN250
    CANCEL 1100=
---------------------------------------------------------------------------
	(NOTAMS)


ETSI D1484/17 SPECIAL ACTIVITY AREA ESTABLISHED FOR AEROBATIC
    FLIGHTS IN VMC RADIUS 3NM CENTERED ON 484200N 0113200E AT
    INGOLSTADT/MANCHING AIRFIELD. GND - 6000FT AMSL, SAT SUN
    0700-SS, MAY 25 0700-SS, JUN 05 15 0700-SS, 06 MAY 07:00
    2017 UNTIL 05 AUG 18:55 2017. CREATED: 05 MAY 09:23 2017

ETSI D1485/17 SPECIAL ACTIVITY AREA ESTABLISHED FOR AEROBATIC
    FLIGHTS IN VMC RADIUS 3NM CENTERED ON 484200N 0113200E AT
    INGOLSTADT/MANCHING AIRFIELD. GND - 6000FT AMSL, SAT SUN
    0700-SS, AUG 15 0700-SS, OCT 03 0700-SS, 06 AUG 07:00 2017
    UNTIL 28 OCT 15:54 2017. CREATED: 05 MAY 09:24 2017

ETSI D1486/17 SPECIAL ACTIVITY AREA ESTABLISHED FOR AEROBATIC
    FLIGHTS IN VMC RADIUS 3NM CENTERED ON 484200N 0113200E AT
    INGOLSTADT/MANCHING AIRFIELD. GND - 6000FT AMSL, SUN TUE
    0800-SS, 29 OCT 08:00 2017 UNTIL 31 OCT 15:49 2017. CREATED:
    05 MAY 09:25 2017

ETSI P3422/17 PAR 25R/07L OUT OF SERVICE. 17 MAY 06:37 2017 UNTIL
    18 AUG 12:00 2017. CREATED: 17 MAY 06:39 2017

ETSI P3423/17 NO SRA POSSIBLE. 17 MAY 06:38 2017 UNTIL 18 AUG
    12:00 2017. CREATED: 17 MAY 06:41 2017

ETSI P3424/17 LIMITED RADAR COVERAGE BELOW 5000FT MSL. DETAILED
    INFORMATION BY INGO RADAR. 17 MAY 06:39 2017 UNTIL 18 AUG
    12:00 2017. CREATED: 17 MAY 06:44 2017

ETSI P3425/17 PAR 25L/07R OUT 0F SERVICE. 17 MAY 06:40 2017 UNTIL
    18 AUG 12:00 2017. CREATED: 17 MAY 06:45 2017

ETSI P3426/17 PAPI 25R U/S. 17 MAY 06:41 2017 UNTIL 18 AUG 12:00
    2017. CREATED: 17 MAY 06:48 2017

ETSI P4032/17 NO APCH END ARRESTMENT FOR RWY 07L. 09 JUN 08:57
    2017 UNTIL 01 SEP 12:00 2017. CREATED: 09 JUN 09:00 2017

ETSI P4357/17 RWY25L CABLE NO.3 OUT OF SERVICE. 22 JUN 07:10
    2017 UNTIL 30 JUN 11:00 2017. CREATED: 22 JUN 07:23 2017

ETSI P4359/17 AERODROME CLOSED EXCEPT FOR CIVIL AIR TRAFFIC.
    29 JUN 11:00 2017 UNTIL 29 JUN 15:00 2017. CREATED: 22 JUN
    07:34 2017

ETSI P4384/17 AD MIL OPENING HOURS CHANGED TO: MON-THU 0700-1400
    FR 0700-1100. 22 JUN 13:59 2017 UNTIL 22 SEP 12:00 2017.
    CREATED: 22 JUN 14:02 2017

ETSI V0127/17 [US DOD PROCEDURAL NOTAM] INSTRUMENT APPROACH PROCEDURE
    AMENDMENT TACAN RWY 07R INCREASE CAT D & CAT E CIRCLING MINIMA
    TO 2630-4800M 1427 (1500-4800M). 17 MAY 11:23 2017 UNTIL
    19 JUL 23:59 2017. CREATED: 17 MAY 11:23 2017

---------------------------------------------------------------------------